Time;durP1;ratioP1;P1;durP2;ratioP2;P2;SDS_P1;SDS_P2;PMS_P1;PMS_P2;Temp;Humidity;BMP_temperature;BMP_pressure;BME280_temperature;BME280_humidity;BME280_pressure;Samples;Min_cycle;Max_cycle;Signal;HPM_P1;HPM_P2
2022/01/14 00:01:21;;;;;;;;;;;;;;;2.35;100.00;103858.91;5091755;28;19919;-79
2022/01/14 00:03:46;;;;;;;;;;;;;;;2.34;100.00;103853.66;5091612;28;19932;-79
2022/01/14 00:06:11;;;;;;;;;;;;;;;2.38;100.00;103856.72;5109983;28;19919;-79
2022/01/14 00:08:37;;;;;;;;;;;;;;;2.34;100.00;103858.75;5072081;28;20436;-79
2022/01/14 00:11:03;;;;;;;;;;;;;;;2.36;100.00;103850.53;5089397;28;19945;-78
2022/01/14 00:16:06;;;;;;;;;;;;;;;2.34;100.00;103838.44;5107096;28;19959;-79
2022/01/14 00:18:32;;;;;;;;;;;;;;;2.33;100.00;103840.06;5094686;28;20016;-79
2022/01/14 00:20:59;;;;;;;;;;;;;;;2.47;100.00;103843.19;5072146;28;19927;-78
2022/01/14 00:23:29;;;;;;;;;;;;;;;2.34;100.00;103834.25;5094490;28;19919;-79
2022/01/14 00:34:06;;;;;;;;;;;;;;;2.23;100.00;103829.63;5110658;27;19930;-76
2022/01/14 00:36:31;;;;;;;;;;;;;;;2.24;100.00;103820.38;5106872;28;19936;-78
2022/01/14 00:38:57;;;;;;;;;;;;;;;2.22;100.00;103830.38;5103116;28;20148;-79
2022/01/14 00:41:22;;;;;;;;;;;;;;;2.19;100.00;103826.63;5104093;28;19919;-79
2022/01/14 00:43:49;;;;;;;;;;;;;;;2.23;100.00;103814.41;5104712;28;20284;-78
2022/01/14 00:46:16;;;;;;;;;;;;;;;2.33;100.00;103816.31;5101695;28;19920;-79
2022/01/14 00:48:41;;;;;;;;;;;;;;;2.27;100.00;103815.66;5074611;28;20296;-79
2022/01/14 00:51:07;;;;;;;;;;;;;;;2.20;100.00;103809.00;5106014;28;19920;-79
2022/01/14 00:53:32;;;;;;;;;;;;;;;2.15;100.00;103805.06;5094615;28;20055;-79
2022/01/14 00:56:20;;;;;;;;;;;;;;;2.14;100.00;103795.66;5105700;28;19916;-79
2022/01/14 01:01:29;;;;;;;;;;;;;;;2.13;100.00;103784.59;5108603;28;19978;-79
2022/01/14 01:03:54;;;;;;;;;;;;;;;2.21;100.00;103787.06;5076205;28;20399;-80
2022/01/14 01:06:19;;;;;;;;;;;;;;;2.13;100.00;103779.53;5093326;28;20384;-79
2022/01/14 01:08:47;;;;;;;;;;;;;;;2.22;100.00;103781.25;5104746;28;19931;-76
2022/01/14 01:11:12;;;;;;;;;;;;;;;2.19;100.00;103770.78;5095385;28;20835;-79
2022/01/14 01:13:43;;;;;;;;;;;;;;;2.10;100.00;103778.28;5090926;28;20049;-78
2022/01/14 01:16:08;;;;;;;;;;;;;;;2.12;100.00;103770.09;5095996;28;19922;-78
2022/01/14 01:18:33;;;;;;;;;;;;;;;2.06;100.00;103768.50;5091871;28;19919;-79
2022/01/14 01:21:00;;;;;;;;;;;;;;;2.05;100.00;103767.59;5106565;28;19923;-78
2022/01/14 01:23:26;;;;;;;;;;;;;;;2.00;100.00;103770.38;5092663;28;19920;-78
2022/01/14 01:25:59;;;;;;;;;;;;;;;2.04;100.00;103770.00;5100484;28;20295;-78
2022/01/14 01:28:26;;;;;;;;;;;;;;;2.03;100.00;103768.19;5104426;28;19932;-79
2022/01/14 01:31:03;;;;;;;;;;;;;;;2.10;100.00;103774.09;5088844;28;19973;-79
2022/01/14 01:33:29;;;;;;;;;;;;;;;2.03;100.00;103774.16;5092264;28;19920;-79
2022/01/14 01:35:56;;;;;;;;;;;;;;;2.00;100.00;103783.06;5089061;28;19969;-79
2022/01/14 01:38:21;;;;;;;;;;;;;;;2.01;100.00;103775.66;5090149;28;19924;-79
2022/01/14 01:40:47;;;;;;;;;;;;;;;1.99;100.00;103779.63;5089620;28;20022;-79
2022/01/14 01:43:13;;;;;;;;;;;;;;;1.96;100.00;103776.78;5117235;28;20022;-79
2022/01/14 01:45:38;;;;;;;;;;;;;;;1.99;100.00;103772.03;5089957;28;19922;-79
2022/01/14 01:48:04;;;;;;;;;;;;;;;1.99;100.00;103772.03;5105385;28;19946;-78
2022/01/14 01:50:30;;;;;;;;;;;;;;;1.99;100.00;103772.03;5104651;28;19920;-79
2022/01/14 01:52:56;;;;;;;;;;;;;;;1.96;100.00;103774.25;5090717;28;19920;-79
2022/01/14 01:55:22;;;;;;;;;;;;;;;1.94;100.00;103768.06;5089284;28;19923;-74
2022/01/14 01:57:48;;;;;;;;;;;;;;;1.92;100.00;103764.47;5071566;28;19920;-77
2022/01/14 02:00:16;;;;;;;;;;;;;;;1.92;100.00;103769.56;5105037;28;20284;-77
2022/01/14 02:02:41;;;;;;;;;;;;;;;1.91;100.00;103772.84;5101011;28;19916;-74
2022/01/14 02:05:07;;;;;;;;;;;;;;;1.94;100.00;103772.25;5091369;28;19964;-77
2022/01/14 02:07:33;;;;;;;;;;;;;;;1.98;100.00;103769.31;5105379;28;19973;-77
2022/01/14 02:09:59;;;;;;;;;;;;;;;2.01;100.00;103768.03;5105806;28;20303;-77
2022/01/14 02:12:25;;;;;;;;;;;;;;;1.96;100.00;103766.63;5087187;28;19943;-77
2022/01/14 02:15:09;;;;;;;;;;;;;;;1.96;100.00;103755.59;5095014;28;20291;-78
2022/01/14 02:23:06;;;;;;;;;;;;;;;1.96;100.00;103750.50;5100729;28;19922;-78
2022/01/14 02:25:32;;;;;;;;;;;;;;;1.99;100.00;103753.34;5092084;28;20033;-78
2022/01/14 02:27:57;;;;;;;;;;;;;;;1.96;100.00;103746.31;5121050;27;20046;-78
2022/01/14 02:30:23;;;;;;;;;;;;;;;1.93;100.00;103743.44;5107393;28;19928;-78
2022/01/14 02:32:49;;;;;;;;;;;;;;;1.90;100.00;103740.59;5079152;28;19924;-79
2022/01/14 02:35:14;;;;;;;;;;;;;;;1.87;100.00;103741.13;5094156;28;19950;-76
2022/01/14 02:37:40;;;;;;;;;;;;;;;1.85;100.00;103741.72;5093988;28;19961;-79
2022/01/14 02:40:05;;;;;;;;;;;;;;;1.83;100.00;103751.72;5109329;28;19920;-79
2022/01/14 02:42:31;;;;;;;;;;;;;;;1.82;100.00;103744.84;5078541;28;19919;-78
2022/01/14 02:45:01;;;;;;;;;;;;;;;1.85;100.00;103732.47;5093981;28;20307;-79
2022/01/14 02:47:27;;;;;;;;;;;;;;;2.00;100.00;103745.00;5093017;28;19924;-78
2022/01/14 02:49:53;;;;;;;;;;;;;;;1.87;100.00;103742.78;5090801;28;19938;-76
2022/01/14 02:52:27;;;;;;;;;;;;;;;1.82;100.00;103736.28;5094115;28;20019;-79
2022/01/14 02:55:13;;;;;;;;;;;;;;;1.79;100.00;103741.94;5106848;27;20006;-77
2022/01/14 02:57:38;;;;;;;;;;;;;;;1.81;100.00;103735.38;5105927;28;19963;-78
2022/01/14 03:00:04;;;;;;;;;;;;;;;1.79;100.00;103726.72;5107371;28;19965;-78
2022/01/14 03:02:29;;;;;;;;;;;;;;;1.76;100.00;103733.09;5105848;28;19919;-75
2022/01/14 03:04:56;;;;;;;;;;;;;;;1.76;100.00;103736.56;5112387;28;19923;-76
2022/01/14 03:07:21;;;;;;;;;;;;;;;1.72;100.00;103744.56;5108904;28;20014;-77
2022/01/14 03:09:47;;;;;;;;;;;;;;;1.72;100.00;103736.03;5106679;28;20007;-76
2022/01/14 03:12:13;;;;;;;;;;;;;;;1.74;100.00;103734.56;5121782;27;19928;-76
2022/01/14 03:14:38;;;;;;;;;;;;;;;1.76;100.00;103736.56;5086125;28;20003;-79
2022/01/14 03:17:03;;;;;;;;;;;;;;;1.75;100.00;103746.50;5090021;28;19924;-75
2022/01/14 03:19:29;;;;;;;;;;;;;;;1.73;100.00;103742.91;5094150;28;20289;-78
2022/01/14 03:22:06;;;;;;;;;;;;;;;1.74;100.00;103739.63;5106465;28;20398;-78
2022/01/14 03:27:00;;;;;;;;;;;;;;;1.75;100.00;103733.81;5100581;28;20372;-77
2022/01/14 03:29:25;;;;;;;;;;;;;;;1.79;100.00;103725.81;5093045;28;19938;-78
2022/01/14 03:31:51;;;;;;;;;;;;;;;1.75;100.00;103728.75;5091254;28;19924;-79
2022/01/14 03:34:16;;;;;;;;;;;;;;;1.73;100.00;103726.06;5093098;28;19915;-77
2022/01/14 03:36:41;;;;;;;;;;;;;;;1.73;100.00;103728.59;5106296;28;19928;-78
2022/01/14 03:39:07;;;;;;;;;;;;;;;1.75;100.00;103732.19;5104848;28;19927;-78
2022/01/14 03:41:32;;;;;;;;;;;;;;;1.76;100.00;103738.16;5075516;28;19924;-78
2022/01/14 03:43:57;;;;;;;;;;;;;;;1.76;100.00;103731.47;5093762;28;19923;-74
2022/01/14 03:46:22;;;;;;;;;;;;;;;1.77;100.00;103729.84;5110177;28;19946;-78
2022/01/14 03:48:48;;;;;;;;;;;;;;;1.74;100.00;103724.41;5076436;28;20312;-78
2022/01/14 03:51:13;;;;;;;;;;;;;;;1.73;100.00;103720.97;5082021;28;19943;-78
2022/01/14 03:53:39;;;;;;;;;;;;;;;1.74;100.00;103721.88;5108387;28;19915;-75
2022/01/14 03:56:04;;;;;;;;;;;;;;;1.74;100.00;103721.88;5103310;28;19969;-77
2022/01/14 03:58:29;;;;;;;;;;;;;;;1.75;100.00;103716.06;5110176;28;19924;-76
2022/01/14 04:00:55;;;;;;;;;;;;;;;1.74;100.00;103716.81;5092196;28;20326;-78
2022/01/14 04:03:20;;;;;;;;;;;;;;;1.73;100.00;103717.53;5098085;28;19986;-78
2022/01/14 04:05:45;;;;;;;;;;;;;;;1.70;100.00;103717.19;5074576;28;19943;-75
2022/01/14 04:08:11;;;;;;;;;;;;;;;1.66;100.00;103718.50;5108703;28;19924;-78
2022/01/14 04:10:36;;;;;;;;;;;;;;;1.68;100.00;103711.97;5102831;28;19965;-75
2022/01/14 04:13:24;;;;;;;;;;;;;;;1.71;100.00;103721.56;5109749;27;19920;-78
2022/01/14 04:15:49;;;;;;;;;;;;;;;1.68;100.00;103709.44;5099467;28;19924;-78
2022/01/14 04:18:17;;;;;;;;;;;;;;;1.67;100.00;103710.16;5093621;28;19915;-78
2022/01/14 04:20:47;;;;;;;;;;;;;;;1.67;100.00;103714.34;5089866;28;19916;-79
2022/01/14 04:23:13;;;;;;;;;;;;;;;1.67;100.00;103701.66;5106281;28;19927;-78
2022/01/14 04:25:39;;;;;;;;;;;;;;;1.64;100.00;103703.84;5090677;28;19916;-79
2022/01/14 04:28:05;;;;;;;;;;;;;;;1.66;100.00;103698.22;5107661;28;19977;-79
2022/01/14 04:30:31;;;;;;;;;;;;;;;1.60;100.00;103705.16;5091422;28;20334;-79
2022/01/14 04:32:57;;;;;;;;;;;;;;;1.55;100.00;103707.19;5090435;28;20435;-78
2022/01/14 04:35:22;;;;;;;;;;;;;;;1.55;100.00;103709.72;5090819;28;19919;-78
2022/01/14 04:37:47;;;;;;;;;;;;;;;1.53;100.00;103706.13;5090243;28;19939;-79
2022/01/14 04:40:13;;;;;;;;;;;;;;;1.58;100.00;103699.03;5092876;27;19986;-79
2022/01/14 04:42:41;;;;;;;;;;;;;;;1.58;100.00;103699.94;5088011;28;19916;-78
2022/01/14 04:45:07;;;;;;;;;;;;;;;1.58;100.00;103696.50;5109035;27;19915;-78
2022/01/14 04:47:44;;;;;;;;;;;;;;;1.60;100.00;103692.47;5091188;28;20429;-78
2022/01/14 04:50:10;;;;;;;;;;;;;;;1.66;100.00;103693.16;5093224;27;20055;-79
2022/01/14 04:52:35;;;;;;;;;;;;;;;1.54;100.00;103687.63;5092401;28;19972;-79
2022/01/14 04:55:01;;;;;;;;;;;;;;;1.51;100.00;103677.16;5107865;28;20600;-79
2022/01/14 04:57:26;;;;;;;;;;;;;;;1.46;100.00;103680.84;5091016;28;20384;-79
2022/01/14 04:59:51;;;;;;;;;;;;;;;1.55;100.00;103673.31;5106830;28;19920;-79
2022/01/14 05:02:17;;;;;;;;;;;;;;;1.50;100.00;103672.81;5101714;28;19927;-79
2022/01/14 05:04:44;;;;;;;;;;;;;;;1.50;100.00;103666.84;5071001;28;20303;-79
2022/01/14 05:07:22;;;;;;;;;;;;;;;1.48;100.00;103660.72;5106727;27;19924;-77
2022/01/14 05:09:57;;;;;;;;;;;;;;;1.47;100.00;103648.78;5090090;28;20010;-79
2022/01/14 05:12:23;;;;;;;;;;;;;;;1.40;100.00;103649.75;5105503;28;20014;-79
2022/01/14 05:14:48;;;;;;;;;;;;;;;1.39;100.00;103652.97;5103118;28;20010;-78
2022/01/14 05:17:13;;;;;;;;;;;;;;;1.36;100.00;103656.84;5070670;28;20458;-77
2022/01/14 05:19:39;;;;;;;;;;;;;;;1.42;100.00;103655.88;5091262;28;19927;-78
2022/01/14 05:22:05;;;;;;;;;;;;;;;1.46;100.00;103655.47;5076018;28;19973;-77
2022/01/14 05:24:30;;;;;;;;;;;;;;;1.39;100.00;103662.22;5088642;28;19915;-80
2022/01/14 05:26:55;;;;;;;;;;;;;;;1.35;100.00;103653.41;5091504;28;20035;-79
2022/01/14 05:29:20;;;;;;;;;;;;;;;1.34;100.00;103652.50;5089965;28;20010;-76
2022/01/14 05:31:51;;;;;;;;;;;;;;;1.30;100.00;103652.00;5073817;28;19920;-78
2022/01/14 05:34:16;;;;;;;;;;;;;;;1.30;100.00;103657.06;5091478;28;20357;-79
2022/01/14 05:36:42;;;;;;;;;;;;;;;1.31;100.00;103663.94;5105196;28;19947;-80
2022/01/14 05:39:07;;;;;;;;;;;;;;;1.35;100.00;103650.88;5089739;28;19982;-76
2022/01/14 05:41:34;;;;;;;;;;;;;;;1.29;100.00;103653.63;5094023;28;19922;-78
2022/01/14 05:44:01;;;;;;;;;;;;;;;1.34;100.00;103646.53;5099660;28;19920;-80
2022/01/14 05:46:26;;;;;;;;;;;;;;;1.32;100.00;103646.34;5087876;28;19920;-80
2022/01/14 05:49:10;;;;;;;;;;;;;;;1.30;100.00;103644.38;5105468;28;20373;-78
2022/01/14 05:51:35;;;;;;;;;;;;;;;1.30;100.00;103644.38;5100485;28;20334;-77
2022/01/14 05:54:00;;;;;;;;;;;;;;;1.36;100.00;103646.69;5089027;28;19920;-79
2022/01/14 05:56:26;;;;;;;;;;;;;;;1.52;100.00;103648.53;5088773;28;19924;-81
2022/01/14 05:58:51;;;;;;;;;;;;;;;1.34;100.00;103646.53;5102156;28;19923;-73
2022/01/14 06:01:16;;;;;;;;;;;;;;;1.31;100.00;103643.66;5090324;28;19928;-79
2022/01/14 06:03:42;;;;;;;;;;;;;;;1.22;100.00;103647.72;5105307;27;19915;-76
2022/01/14 06:06:07;;;;;;;;;;;;;;;1.22;100.00;103645.19;5087091;28;19919;-79
2022/01/14 06:08:32;;;;;;;;;;;;;;;1.27;100.00;103650.00;5093531;28;19924;-80
2022/01/14 06:10:57;;;;;;;;;;;;;;;1.22;100.00;103655.34;5089534;28;20393;-77
2022/01/14 06:13:23;;;;;;;;;;;;;;;1.22;100.00;103662.94;5094159;28;19931;-79
2022/01/14 06:15:48;;;;;;;;;;;;;;;1.20;100.00;103656.78;5076686;28;19927;-80
2022/01/14 06:18:13;;;;;;;;;;;;;;;1.21;100.00;103676.31;5093143;28;20357;-79
2022/01/14 06:20:39;;;;;;;;;;;;;;;1.16;100.00;103673.28;5110989;28;19999;-80
2022/01/14 06:23:04;;;;;;;;;;;;;;;1.21;100.00;103673.78;5094243;28;19919;-80
2022/01/14 06:25:29;;;;;;;;;;;;;;;1.19;100.00;103658.41;5089537;28;20011;-79
2022/01/14 06:27:55;;;;;;;;;;;;;;;1.19;100.00;103660.94;5073891;28;19924;-80
2022/01/14 06:30:20;;;;;;;;;;;;;;;1.17;100.00;103657.34;5100818;28;19966;-79
2022/01/14 06:32:45;;;;;;;;;;;;;;;1.12;100.00;103655.94;5094408;28;19943;-77
2022/01/14 06:35:14;;;;;;;;;;;;;;;1.15;100.00;103662.97;5092430;28;19964;-80
2022/01/14 06:37:40;;;;;;;;;;;;;;;1.13;100.00;103662.81;5074647;28;19920;-80
2022/01/14 06:40:05;;;;;;;;;;;;;;;1.09;100.00;103663.19;5100878;28;20402;-79
2022/01/14 06:42:31;;;;;;;;;;;;;;;1.19;100.00;103654.97;5092127;28;19923;-79
2022/01/14 06:44:56;;;;;;;;;;;;;;;1.19;100.00;103658.41;5094150;28;20007;-79
2022/01/14 06:47:22;;;;;;;;;;;;;;;1.08;100.00;103651.25;5101608;28;19924;-79
2022/01/14 06:49:48;;;;;;;;;;;;;;;1.10;100.00;103654.88;5078279;28;19920;-79
2022/01/14 06:52:13;;;;;;;;;;;;;;;1.07;100.00;103660.50;5107977;28;19920;-75
2022/01/14 06:54:38;;;;;;;;;;;;;;;1.09;100.00;103647.97;5093491;28;19926;-79
2022/01/14 06:57:04;;;;;;;;;;;;;;;1.07;100.00;103645.28;5103345;28;19984;-78
2022/01/14 06:59:29;;;;;;;;;;;;;;;1.04;100.00;103652.56;5077591;28;20009;-79
2022/01/14 07:01:54;;;;;;;;;;;;;;;1.02;100.00;103648.94;5096899;28;19926;-79
2022/01/14 07:04:20;;;;;;;;;;;;;;;1.00;100.00;103652.03;5108868;28;20007;-80
2022/01/14 07:06:45;;;;;;;;;;;;;;;0.96;100.00;103655.84;5070316;28;19927;-79
2022/01/14 07:09:10;;;;;;;;;;;;;;;0.96;100.00;103652.44;5107270;28;20401;-79
2022/01/14 07:11:39;;;;;;;;;;;;;;;0.96;100.00;103655.84;5118064;27;19926;-78
2022/01/14 07:14:04;;;;;;;;;;;;;;;0.99;100.00;103647.72;5108435;28;19992;-76
2022/01/14 07:16:30;;;;;;;;;;;;;;;0.99;100.00;103655.31;5093398;28;19915;-79
2022/01/14 07:18:55;;;;;;;;;;;;;;;0.99;100.00;103662.91;5106554;28;19923;-79
2022/01/14 07:21:21;;;;;;;;;;;;;;;1.04;100.00;103670.31;5091338;28;20361;-79
2022/01/14 07:23:46;;;;;;;;;;;;;;;1.03;100.00;103665.03;5090118;28;19916;-79
2022/01/14 07:26:11;;;;;;;;;;;;;;;1.10;100.00;103666.66;5088819;28;20009;-80
2022/01/14 07:28:37;;;;;;;;;;;;;;;1.06;100.00;103661.22;5088621;28;19970;-80
2022/01/14 07:31:02;;;;;;;;;;;;;;;0.96;100.00;103660.94;5108768;28;19920;-79
2022/01/14 07:33:28;;;;;;;;;;;;;;;0.96;100.00;103675.22;5103989;28;19923;-80
2022/01/14 07:35:53;;;;;;;;;;;;;;;0.93;100.00;103678.34;5097511;27;19928;-78
2022/01/14 07:38:18;;;;;;;;;;;;;;;1.02;100.00;103681.88;5103662;28;19926;-76
2022/01/14 07:40:43;;;;;;;;;;;;;;;0.94;100.00;103677.59;5109015;28;19920;-80
2022/01/14 07:43:09;;;;;;;;;;;;;;;0.92;100.00;103673.09;5107891;28;19957;-77
2022/01/14 07:45:34;;;;;;;;;;;;;;;0.92;100.00;103681.59;5108088;28;19916;-73
2022/01/14 07:48:00;;;;;;;;;;;;;;;0.94;100.00;103687.72;5107173;28;19984;-78
2022/01/14 07:50:25;;;;;;;;;;;;;;;0.92;100.00;103675.63;5092399;28;19919;-77
2022/01/14 07:52:50;;;;;;;;;;;;;;;0.93;100.00;103672.38;5108035;28;20328;-77
2022/01/14 07:55:16;;;;;;;;;;;;;;;0.93;100.00;103674.91;5108352;28;19923;-82
2022/01/14 07:57:41;;;;;;;;;;;;;;;0.92;100.00;103679.06;5094789;28;20427;-78
2022/01/14 08:00:07;;;;;;;;;;;;;;;0.95;100.00;103674.34;5090764;28;19920;-75
2022/01/14 08:02:32;;;;;;;;;;;;;;;0.99;100.00;103673.94;5115371;27;20448;-75
2022/01/14 08:04:58;;;;;;;;;;;;;;;1.04;100.00;103660.16;5103891;28;19920;-75
2022/01/14 08:07:25;;;;;;;;;;;;;;;0.96;100.00;103660.94;5108156;28;19928;-76
2022/01/14 08:09:50;;;;;;;;;;;;;;;0.96;100.00;103660.03;5089854;28;19927;-75
2022/01/14 08:12:16;;;;;;;;;;;;;;;0.99;100.00;103652.78;5064647;28;19920;-77
2022/01/14 08:14:41;;;;;;;;;;;;;;;1.01;100.00;103651.31;5103561;28;20027;-77
2022/01/14 08:17:07;;;;;;;;;;;;;;;0.92;100.00;103653.75;5109828;28;19916;-77
2022/01/14 08:19:33;;;;;;;;;;;;;;;0.90;100.00;103659.34;5107171;28;19919;-74
2022/01/14 08:22:02;;;;;;;;;;;;;;;0.90;100.00;103645.03;5103867;28;19988;-78
2022/01/14 08:24:28;;;;;;;;;;;;;;;0.93;100.00;103655.53;5106705;28;19923;-78
2022/01/14 08:26:54;;;;;;;;;;;;;;;0.94;100.00;103667.47;5091190;28;20513;-78
2022/01/14 08:29:19;;;;;;;;;;;;;;;1.02;100.00;103673.38;5090251;28;20281;-77
2022/01/14 08:31:44;;;;;;;;;;;;;;;1.07;100.00;103692.53;5084368;28;19924;-75
2022/01/14 08:34:10;;;;;;;;;;;;;;;1.09;100.00;103686.00;5089092;28;20446;-76
2022/01/14 08:36:35;;;;;;;;;;;;;;;1.09;100.00;103683.47;5085403;28;20395;-75
2022/01/14 08:39:00;;;;;;;;;;;;;;;1.12;100.00;103677.84;5092589;28;19926;-81
2022/01/14 08:41:29;;;;;;;;;;;;;;;1.11;100.00;103697.22;5098879;28;19920;-76
2022/01/14 08:43:57;;;;;;;;;;;;;;;1.11;100.00;103678.59;5092201;28;20288;-78
2022/01/14 08:46:26;;;;;;;;;;;;;;;1.13;100.00;103682.19;5087645;28;19916;-77
2022/01/14 08:48:51;;;;;;;;;;;;;;;1.13;100.00;103675.47;5090638;28;20023;-78
2022/01/14 08:51:17;;;;;;;;;;;;;;;1.17;100.00;103681.78;5104179;28;19943;-76
2022/01/14 08:53:42;;;;;;;;;;;;;;;1.22;100.00;103673.06;5108277;28;20007;-76
2022/01/14 08:56:08;;;;;;;;;;;;;;;1.24;100.00;103669.06;5073306;28;20320;-76
2022/01/14 08:58:33;;;;;;;;;;;;;;;1.29;100.00;103686.59;5104134;28;19927;-76
2022/01/14 09:00:58;;;;;;;;;;;;;;;1.30;100.00;103674.81;5104813;28;19928;-75
2022/01/14 09:03:23;;;;;;;;;;;;;;;1.33;100.00;103667.53;5105468;28;19924;-75
2022/01/14 09:05:49;;;;;;;;;;;;;;;1.39;100.00;103674.91;5087890;28;19924;-75
2022/01/14 09:08:14;;;;;;;;;;;;;;;1.50;100.00;103669.38;5087331;28;19927;-75
2022/01/14 09:10:39;;;;;;;;;;;;;;;1.54;100.00;103658.84;5074562;28;19967;-74
2022/01/14 09:13:05;;;;;;;;;;;;;;;1.57;100.00;103669.31;5090804;28;19926;-75
2022/01/14 09:15:30;;;;;;;;;;;;;;;1.57;100.00;103677.81;5087927;28;19997;-76
2022/01/14 09:17:55;;;;;;;;;;;;;;;1.53;100.00;103679.88;5073945;28;20299;-75
2022/01/14 09:20:21;;;;;;;;;;;;;;;1.53;100.00;103675.69;5074714;28;20050;-75
2022/01/14 09:22:51;;;;;;;;;;;;;;;1.58;100.00;103661.88;5108334;28;19961;-75
2022/01/14 09:25:18;;;;;;;;;;;;;;;1.64;100.00;103660.72;5102646;28;19921;-76
2022/01/14 09:27:43;;;;;;;;;;;;;;;1.64;100.00;103666.72;5103766;28;19926;-75
2022/01/14 09:30:09;;;;;;;;;;;;;;;1.65;100.00;103680.31;5103103;28;20288;-75
2022/01/14 09:32:34;;;;;;;;;;;;;;;1.69;100.00;103680.78;5099337;28;20406;-75
2022/01/14 09:35:04;;;;;;;;;;;;;;;1.72;100.00;103690.38;5088837;28;19920;-75
2022/01/14 09:37:30;;;;;;;;;;;;;;;1.74;100.00;103683.81;5092041;28;19965;-76
2022/01/14 09:39:55;;;;;;;;;;;;;;;1.79;100.00;103675.97;5074147;28;19920;-76
2022/01/14 09:42:20;;;;;;;;;;;;;;;1.81;100.00;103694.81;5104936;28;20008;-76
2022/01/14 09:44:46;;;;;;;;;;;;;;;1.83;100.00;103695.00;5107830;28;19919;-74
2022/01/14 09:47:17;;;;;;;;;;;;;;;1.86;100.00;103702.91;5107159;28;20310;-75
2022/01/14 09:49:43;;;;;;;;;;;;;;;1.87;100.00;103704.72;5090586;28;19915;-75
2022/01/14 09:52:09;;;;;;;;;;;;;;;1.89;100.00;103703.25;5073804;28;20265;-76
2022/01/14 09:54:34;;;;;;;;;;;;;;;1.91;100.00;103698.34;5097804;28;20028;-75
2022/01/14 09:56:59;;;;;;;;;;;;;;;1.94;100.00;103699.56;5090289;28;19973;-75
2022/01/14 09:59:24;;;;;;;;;;;;;;;1.99;100.00;103700.97;5072241;28;19920;-76
2022/01/14 10:01:50;;;;;;;;;;;;;;;2.01;100.00;103701.16;5104613;28;19931;-75
2022/01/14 10:04:17;;;;;;;;;;;;;;;2.02;100.00;103706.38;5118424;28;19920;-75
2022/01/14 10:06:42;;;;;;;;;;;;;;;2.04;100.00;103701.47;5086788;28;20057;-75
2022/01/14 10:09:09;;;;;;;;;;;;;;;2.05;100.00;103709.22;5106821;28;20010;-75
2022/01/14 10:11:35;;;;;;;;;;;;;;;2.07;100.00;103696.72;5088868;28;19923;-72
2022/01/14 10:14:11;;;;;;;;;;;;;;;2.12;100.00;103701.56;5102083;28;20364;-75
2022/01/14 10:16:41;;;;;;;;;;;;;;;2.18;100.00;103700.41;5087704;28;19923;-75
2022/01/14 10:19:16;;;;;;;;;;;;;;;2.19;100.00;103704.78;5102640;28;19920;-75
2022/01/14 10:21:41;;;;;;;;;;;;;;;2.26;100.00;103704.69;5100266;28;19916;-74
2022/01/14 10:24:09;;;;;;;;;;;;;;;2.29;100.00;103707.53;5089154;28;19935;-75
2022/01/14 10:26:52;;;;;;;;;;;;;;;2.39;100.00;103702.69;5088814;28;19927;-74
2022/01/14 10:29:28;;;;;;;;;;;;;;;2.34;100.00;103696.22;5103505;28;19924;-75
2022/01/14 10:31:54;;;;;;;;;;;;;;;2.41;100.00;103701.22;5117056;28;19956;-75
2022/01/14 10:34:19;;;;;;;;;;;;;;;2.46;100.00;103691.56;5089712;28;19920;-75
2022/01/14 10:36:46;;;;;;;;;;;;;;;2.48;100.00;103701.13;5089818;28;19916;-75
2022/01/14 10:39:27;;;;;;;;;;;;;;;2.46;100.00;103691.56;5105602;28;19920;-75
2022/01/14 10:41:55;;;;;;;;;;;;;;;2.47;100.00;103690.81;5087386;28;19923;-74
2022/01/14 10:44:31;;;;;;;;;;;;;;;2.49;100.00;103691.84;5090433;28;20287;-74
2022/01/14 10:47:09;;;;;;;;;;;;;;;2.57;100.00;103686.88;5100466;28;19923;-74
2022/01/14 10:49:34;;;;;;;;;;;;;;;2.59;100.00;103694.63;5093249;28;19931;-73
2022/01/14 10:52:10;;;;;;;;;;;;;;;2.62;100.00;103690.78;5091536;28;20311;-74
2022/01/14 10:54:40;;;;;;;;;;;;;;;2.63;100.00;103696.78;5093294;28;19923;-74
2022/01/14 10:57:16;;;;;;;;;;;;;;;2.66;100.00;103695.44;5098853;27;19916;-76
2022/01/14 10:59:42;;;;;;;;;;;;;;;2.67;100.00;103679.47;5091839;28;19916;-72
2022/01/14 11:02:26;;;;;;;;;;;;;;;2.71;100.00;103670.53;5093831;28;20342;-76
2022/01/14 11:05:20;;;;;;;;;;;;;;;2.75;100.00;103671.75;5106858;28;19916;-75
2022/01/14 11:07:46;;;;;;;;;;;;;;;2.85;100.00;103657.63;5096777;27;19934;-75
2022/01/14 11:10:14;;;;;;;;;;;;;;;2.90;100.00;103660.63;5104071;28;19928;-77
2022/01/14 11:12:40;;;;;;;;;;;;;;;2.87;100.00;103668.84;5105973;27;19916;-75
2022/01/14 11:15:06;;;;;;;;;;;;;;;2.93;100.00;103664.41;5100963;28;19955;-75
2022/01/14 11:17:31;;;;;;;;;;;;;;;2.98;100.00;103657.25;5091837;28;20372;-75
2022/01/14 11:19:58;;;;;;;;;;;;;;;2.99;100.00;103656.50;5093509;28;19922;-76
2022/01/14 11:25:10;;;;;;;;;;;;;;;3.08;100.00;103659.09;5098121;28;19999;-73
2022/01/14 11:27:35;;;;;;;;;;;;;;;3.15;100.00;103653.88;5092223;28;20395;-74
2022/01/14 11:30:01;;;;;;;;;;;;;;;3.15;100.00;103662.41;5092493;28;19920;-71
2022/01/14 11:32:27;;;;;;;;;;;;;;;3.15;100.00;103666.59;5089050;28;19930;-74
2022/01/14 11:34:52;;;;;;;;;;;;;;;3.12;100.00;103659.56;5089221;28;19934;-72
2022/01/14 11:37:31;;;;;;;;;;;;;;;3.14;100.00;103665.69;5105686;27;19935;-73
2022/01/14 11:40:02;;;;;;;;;;;;;;;3.19;100.00;103663.63;5087507;28;19912;-77
2022/01/14 11:42:40;;;;;;;;;;;;;;;3.28;100.00;103667.13;5108829;28;20000;-80
2022/01/14 11:45:06;;;;;;;;;;;;;;;3.32;100.00;103664.13;5093419;28;19924;-75
2022/01/14 11:47:40;;;;;;;;;;;;;;;3.33;100.00;103662.47;5092425;28;20392;-74
2022/01/14 11:50:18;;;;;;;;;;;;;;;3.34;100.00;103664.31;5093913;28;20346;-74
2022/01/14 11:52:44;;;;;;;;;;;;;;;3.33;100.00;103648.13;5107231;28;20295;-78
2022/01/14 11:55:21;;;;;;;;;;;;;;;3.47;100.00;103644.44;5116358;27;19916;-77
2022/01/14 11:57:49;;;;;;;;;;;;;;;3.49;100.00;103648.03;5093068;28;19949;-78
2022/01/14 12:00:26;;;;;;;;;;;;;;;3.46;100.00;103643.56;5105892;28;19915;-77
2022/01/14 12:03:18;;;;;;;;;;;;;;;3.49;100.00;103646.41;5107421;28;19916;-78
2022/01/14 12:05:49;;;;;;;;;;;;;;;3.47;100.00;103647.91;5108595;28;19911;-80
2022/01/14 12:08:15;;;;;;;;;;;;;;;3.52;100.00;103645.81;5092402;28;19930;-79
2022/01/14 12:10:42;;;;;;;;;;;;;;;3.60;100.00;103649.13;5108019;28;19961;-79
2022/01/14 12:13:24;;;;;;;;;;;;;;;3.60;100.00;103637.31;5103697;28;19923;-81
2022/01/14 12:16:01;;;;;;;;;;;;;;;3.67;100.00;103642.25;5090822;28;19924;-78
2022/01/14 12:18:45;;;;;;;;;;;;;;;3.68;100.00;103638.97;5088230;28;20467;-79
2022/01/14 12:21:10;;;;;;;;;;;;;;;3.71;100.00;103629.09;5101616;28;20381;-79
2022/01/14 12:23:36;;;;;;;;;;;;;;;3.74;100.00;103629.41;5093019;28;20060;-79
2022/01/14 12:26:15;;;;;;;;;;;;;;;3.76;100.00;103633.00;5088280;28;19956;-79
2022/01/14 12:28:41;;;;;;;;;;;;;;;3.73;100.00;103635.22;5089581;28;19924;-82
2022/01/14 12:31:06;;;;;;;;;;;;;;;3.72;100.00;103636.00;5074233;28;20388;-74
2022/01/14 12:33:45;;;;;;;;;;;;;;;3.78;100.00;103632.25;5089621;28;19985;-79
2022/01/14 12:36:16;;;;;;;;;;;;;;;3.85;100.00;103629.56;5089295;28;19916;-80
2022/01/14 12:38:42;;;;;;;;;;;;;;;3.89;100.00;103632.59;5105141;28;19923;-80
2022/01/14 12:41:14;;;;;;;;;;;;;;;3.93;100.00;103621.94;5092618;28;20000;-79
2022/01/14 12:43:46;;;;;;;;;;;;;;;3.95;100.00;103620.47;5108280;28;19923;-78
2022/01/14 12:46:14;;;;;;;;;;;;;;;3.95;100.00;103617.00;5089355;28;19984;-79
2022/01/14 12:48:50;;;;;;;;;;;;;;;3.93;100.00;103624.47;5088522;28;19920;-81
2022/01/14 12:51:17;;;;;;;;;;;;;;;3.91;100.00;103614.91;5080134;28;19916;-79
2022/01/14 12:53:49;;;;;;;;;;;;;;;3.91;100.00;103623.44;5087111;28;19919;-78
2022/01/14 12:56:16;;;;;;;;;;;;;;;3.96;100.00;103616.25;5072497;28;19931;-78
2022/01/14 12:58:49;;;;;;;;;;;;;;;3.98;100.00;103622.41;5085298;28;19928;-80
2022/01/14 13:01:14;;;;;;;;;;;;;;;3.98;100.00;103614.75;5102871;28;20319;-79